createdAt,value
2023-02-06T00:01:44.797Z,15.93
2023-02-06T00:04:12.978Z,15.90
2023-02-06T00:06:45.363Z,14.77
2023-02-06T00:09:16.395Z,17.10
2023-02-06T00:11:45.474Z,15.70
2023-02-06T00:14:24.320Z,14.50
2023-02-06T00:16:53.625Z,15.63
2023-02-06T00:19:25.981Z,15.40
2023-02-06T00:22:00.307Z,15.23
2023-02-06T00:24:32.998Z,15.03
2023-02-06T00:27:04.953Z,13.63
2023-02-06T00:29:37.852Z,14.37
2023-02-06T00:32:08.046Z,14.40
2023-02-06T00:34:39.788Z,14.20
2023-02-06T00:37:09.011Z,14.70
2023-02-06T00:39:40.882Z,14.37
2023-02-06T00:42:13.986Z,13.00
2023-02-06T00:44:43.624Z,12.63
2023-02-06T00:47:11.522Z,13.50
2023-02-06T00:49:48.291Z,13.13
2023-02-06T00:52:21.685Z,13.20
2023-02-06T00:54:52.041Z,11.97
2023-02-06T00:57:21.216Z,12.13
2023-02-06T00:59:53.550Z,12.00
2023-02-06T01:02:24.547Z,12.23
2023-02-06T01:04:54.116Z,12.27
2023-02-06T01:07:28.316Z,11.70
2023-02-06T01:10:00.189Z,11.73
2023-02-06T01:12:32.568Z,12.50
2023-02-06T01:15:03.979Z,11.70
2023-02-06T01:17:33.734Z,11.70
2023-02-06T01:20:02.856Z,10.67
2023-02-06T01:22:34.840Z,10.70
2023-02-06T01:25:02.797Z,10.70
2023-02-06T01:27:31.014Z,9.97
2023-02-06T01:29:59.057Z,9.60
2023-02-06T01:32:35.339Z,9.67
2023-02-06T01:35:10.148Z,9.10
2023-02-06T01:37:42.807Z,10.07
2023-02-06T01:40:18.881Z,8.77
2023-02-06T01:42:46.766Z,10.13
2023-02-06T01:45:39.960Z,9.93
2023-02-06T01:48:11.979Z,9.70
2023-02-06T01:50:46.567Z,10.60
2023-02-06T01:53:21.758Z,9.80
2023-02-06T01:55:51.964Z,9.60
2023-02-06T01:58:26.606Z,9.67
2023-02-06T02:00:54.754Z,9.57
2023-02-06T02:03:34.072Z,9.73
2023-02-06T02:06:08.431Z,10.60
2023-02-06T02:08:43.487Z,9.27
2023-02-06T02:11:17.484Z,9.03
2023-02-06T02:13:50.345Z,9.80
2023-02-06T02:16:24.499Z,10.10
2023-02-06T02:19:12.720Z,9.73
2023-02-06T02:22:23.170Z,9.70
2023-02-06T02:25:15.599Z,9.57
2023-02-06T02:28:11.871Z,9.30
2023-02-06T02:30:58.578Z,9.20
2023-02-06T02:34:08.002Z,9.60
2023-02-06T02:36:46.935Z,9.67
2023-02-06T02:39:33.299Z,9.50
2023-02-06T02:42:14.362Z,9.73
2023-02-06T02:45:00.791Z,10.83
2023-02-06T02:47:42.823Z,8.80
2023-02-06T02:50:13.839Z,8.97
2023-02-06T02:52:43.417Z,9.50
2023-02-06T02:55:19.300Z,9.83
2023-02-06T02:57:50.065Z,10.00
2023-02-06T03:00:23.260Z,9.73
2023-02-06T03:02:53.547Z,8.90
2023-02-06T03:05:24.486Z,8.57
2023-02-06T03:08:07.692Z,8.90
2023-02-06T03:10:45.740Z,9.17
2023-02-06T03:13:25.277Z,8.83
2023-02-06T03:16:01.941Z,8.27
2023-02-06T03:18:35.764Z,8.47
2023-02-06T03:21:08.471Z,8.67
2023-02-06T03:23:42.591Z,7.93
2023-02-06T03:26:17.301Z,7.83
2023-02-06T03:28:53.633Z,7.70
2023-02-06T03:31:31.938Z,8.20
2023-02-06T03:34:18.483Z,8.33
2023-02-06T03:36:48.534Z,7.30
2023-02-06T03:39:17.860Z,7.07
2023-02-06T03:41:48.039Z,6.90
2023-02-06T03:44:23.679Z,6.67
2023-02-06T03:46:58.449Z,6.40
2023-02-06T03:49:32.746Z,6.60
2023-02-06T03:52:05.732Z,6.60
2023-02-06T03:54:43.050Z,6.80
2023-02-06T03:57:19.163Z,6.20
2023-02-06T03:59:54.061Z,5.90
2023-02-06T04:02:26.717Z,6.20
2023-02-06T04:05:02.644Z,5.90
2023-02-06T04:07:38.361Z,5.90
2023-02-06T04:10:09.784Z,5.83
2023-02-06T04:12:45.170Z,5.63
2023-02-06T04:15:24.578Z,6.20
2023-02-06T04:18:03.949Z,6.03
2023-02-06T04:20:40.935Z,5.87
2023-02-06T04:23:16.727Z,4.97
2023-02-06T04:25:48.468Z,6.77
2023-02-06T04:28:17.625Z,4.90
2023-02-06T04:30:52.910Z,5.20
2023-02-06T04:33:28.310Z,4.67
2023-02-06T04:36:02.838Z,4.90
2023-02-06T04:38:33.544Z,5.40
2023-02-06T04:41:08.996Z,5.37
2023-02-06T04:43:42.580Z,5.13
2023-02-06T04:46:14.216Z,4.90
2023-02-06T04:48:42.100Z,5.27
2023-02-06T04:51:10.044Z,5.07
2023-02-06T04:53:40.019Z,4.70
2023-02-06T04:56:10.824Z,5.07
2023-02-06T04:58:40.658Z,4.33
2023-02-06T05:01:08.733Z,4.90
2023-02-06T05:03:36.794Z,4.87
2023-02-06T05:06:05.871Z,4.70
2023-02-06T05:08:38.517Z,5.23
2023-02-06T05:11:14.851Z,4.97
2023-02-06T05:13:46.222Z,4.20
2023-02-06T05:16:19.254Z,4.70
2023-02-06T05:18:55.554Z,4.50
2023-02-06T05:21:26.103Z,4.93
2023-02-06T05:24:02.707Z,4.57
2023-02-06T05:26:30.687Z,4.00
2023-02-06T05:28:59.944Z,4.30
2023-02-06T05:31:30.596Z,5.17
2023-02-06T05:34:01.349Z,4.87
2023-02-06T05:36:29.338Z,4.67
2023-02-06T05:38:57.217Z,4.57
2023-02-06T05:41:36.820Z,4.30
2023-02-06T05:44:06.280Z,4.20
2023-02-06T05:46:37.363Z,3.73
2023-02-06T05:49:07.755Z,5.40
2023-02-06T05:51:38.343Z,4.70
2023-02-06T05:54:19.453Z,4.70
2023-02-06T05:56:50.412Z,4.33
2023-02-06T05:59:19.878Z,4.50
2023-02-06T06:01:55.852Z,4.60
2023-02-06T06:04:25.491Z,5.10
2023-02-06T06:06:55.136Z,4.30
2023-02-06T06:09:26.824Z,4.50
2023-02-06T06:11:56.357Z,4.73
2023-02-06T06:14:30.260Z,5.10
2023-02-06T06:17:01.107Z,5.17
2023-02-06T06:19:32.110Z,4.90
2023-02-06T06:22:01.877Z,4.70
2023-02-06T06:24:31.417Z,4.57
2023-02-06T06:26:59.917Z,5.23
2023-02-06T06:29:32.219Z,5.43
2023-02-06T06:32:00.254Z,4.30
2023-02-06T06:34:28.488Z,4.93
2023-02-06T06:36:56.390Z,4.73
2023-02-06T06:39:24.573Z,4.23
2023-02-06T06:41:52.565Z,4.47
2023-02-06T06:44:20.549Z,4.77
2023-02-06T06:46:49.910Z,4.20
2023-02-06T06:49:17.923Z,4.77
2023-02-06T06:51:45.793Z,5.33
2023-02-06T06:54:14.431Z,4.70
2023-02-06T06:56:42.391Z,5.70
2023-02-06T06:59:10.366Z,4.93
2023-02-06T07:01:40.578Z,4.80
2023-02-06T07:04:09.819Z,5.20
2023-02-06T07:06:38.521Z,5.00
2023-02-06T07:09:06.406Z,5.00
2023-02-06T07:11:34.354Z,4.97
2023-02-06T07:14:02.245Z,5.07
2023-02-06T07:16:30.157Z,5.43
2023-02-06T07:18:58.075Z,5.13
2023-02-06T07:21:27.416Z,5.40
2023-02-06T07:23:56.672Z,6.20
2023-02-06T07:26:24.610Z,4.60
2023-02-06T07:28:52.645Z,5.53
2023-02-06T07:31:20.810Z,7.37
2023-02-06T07:33:49.108Z,6.63
2023-02-06T07:36:18.405Z,7.90
2023-02-06T07:38:47.750Z,7.63
2023-02-06T07:41:17.870Z,9.40
2023-02-06T07:43:45.825Z,8.23
2023-02-06T07:46:15.396Z,7.77
2023-02-06T07:48:43.455Z,8.33
2023-02-06T07:51:11.370Z,8.17
2023-02-06T07:53:39.779Z,8.03
2023-02-06T07:56:13.841Z,8.60
2023-02-06T07:58:41.999Z,8.03
2023-02-06T08:01:10.712Z,7.70
2023-02-06T08:03:38.656Z,7.53
2023-02-06T08:06:14.656Z,7.40
2023-02-06T08:08:42.940Z,7.20
2023-02-06T08:11:14.799Z,6.63
2023-02-06T08:13:42.884Z,7.13
2023-02-06T08:16:13.468Z,7.50
2023-02-06T08:18:41.609Z,8.03
2023-02-06T08:21:12.105Z,8.60
2023-02-06T08:23:40.089Z,7.10
2023-02-06T08:26:13.839Z,7.13
2023-02-06T08:28:42.417Z,8.37
2023-02-06T08:31:12.601Z,7.50
2023-02-06T08:33:40.660Z,8.80
2023-02-06T08:36:09.954Z,7.47
2023-02-06T08:38:39.237Z,7.57
2023-02-06T08:41:17.456Z,8.20
2023-02-06T08:43:47.146Z,6.50
2023-02-06T08:46:16.202Z,8.17
2023-02-06T08:48:46.235Z,7.90
2023-02-06T08:51:16.689Z,8.40
2023-02-06T08:53:44.611Z,8.27
2023-02-06T08:56:13.450Z,7.50
2023-02-06T08:58:42.051Z,7.23
2023-02-06T09:01:13.644Z,8.10
2023-02-06T09:03:42.781Z,9.83
2023-02-06T09:06:11.402Z,7.70
2023-02-06T09:08:40.598Z,8.07
2023-02-06T09:11:10.008Z,8.93
2023-02-06T09:13:38.311Z,8.00
2023-02-06T09:16:07.408Z,8.70
2023-02-06T09:18:44.221Z,7.87
2023-02-06T09:21:14.854Z,8.50
2023-02-06T09:23:44.640Z,9.83
2023-02-06T09:26:15.870Z,9.80
2023-02-06T09:28:44.018Z,9.30
2023-02-06T09:31:12.413Z,10.17
2023-02-06T09:33:41.893Z,10.10
2023-02-06T09:36:12.318Z,9.60
2023-02-06T09:38:42.219Z,8.83
2023-02-06T09:41:19.537Z,9.70
2023-02-06T09:43:52.489Z,10.20
2023-02-06T09:46:26.941Z,10.17
2023-02-06T09:48:58.376Z,10.40
2023-02-06T09:51:39.988Z,10.07
2023-02-06T09:54:19.589Z,9.90
2023-02-06T09:56:54.036Z,10.87
2023-02-06T09:59:30.035Z,11.90
2023-02-06T10:02:12.369Z,11.70
2023-02-06T10:04:48.476Z,11.27
2023-02-06T10:07:27.997Z,10.57
2023-02-06T10:10:01.813Z,11.13
2023-02-06T10:12:36.857Z,10.87
2023-02-06T10:15:12.845Z,10.20
2023-02-06T10:17:47.707Z,10.70
2023-02-06T10:20:21.308Z,10.00
2023-02-06T10:22:59.203Z,9.40
2023-02-06T10:25:31.367Z,10.83
2023-02-06T10:28:02.446Z,10.37
2023-02-06T10:30:45.089Z,11.07
2023-02-06T10:33:25.528Z,10.33
2023-02-06T10:36:04.128Z,10.20
2023-02-06T10:39:13.665Z,11.07
2023-02-06T10:41:52.361Z,10.53
2023-02-06T10:44:28.391Z,11.73
2023-02-06T10:46:58.487Z,10.33
2023-02-06T10:49:31.361Z,9.57
2023-02-06T10:52:03.731Z,9.70
2023-02-06T10:54:37.137Z,9.80
2023-02-06T10:57:12.739Z,10.00
2023-02-06T10:59:44.305Z,9.13
2023-02-06T11:02:21.382Z,9.20
2023-02-06T11:04:54.889Z,9.60
2023-02-06T11:07:29.056Z,8.90
2023-02-06T11:09:59.970Z,10.43
2023-02-06T11:12:33.207Z,9.37
2023-02-06T11:15:07.617Z,9.40
2023-02-06T11:17:35.766Z,9.30
2023-02-06T11:20:20.117Z,9.43
2023-02-06T11:22:52.989Z,9.43
2023-02-06T11:25:26.072Z,9.83
2023-02-06T11:27:54.695Z,9.50
2023-02-06T11:30:31.905Z,8.73
2023-02-06T11:33:04.936Z,9.87
2023-02-06T11:35:35.869Z,8.80
2023-02-06T11:38:15.964Z,9.83
2023-02-06T11:40:44.365Z,10.20
2023-02-06T11:43:20.706Z,9.80
2023-02-06T11:45:52.227Z,9.80
2023-02-06T11:48:35.382Z,8.93
2023-02-06T11:51:04.207Z,9.83
2023-02-06T11:53:33.983Z,9.20
2023-02-06T11:56:06.641Z,9.23
2023-02-06T11:58:34.569Z,8.47
2023-02-06T12:01:05.619Z,8.90
2023-02-06T12:03:36.828Z,8.47
2023-02-06T12:06:12.513Z,8.80
2023-02-06T12:08:47.304Z,8.17
2023-02-06T12:11:23.078Z,8.97
2023-02-06T12:13:54.637Z,8.30
2023-02-06T12:16:23.818Z,9.00
2023-02-06T12:18:56.128Z,8.37
2023-02-06T12:21:30.011Z,8.03
2023-02-06T12:24:02.423Z,7.93
2023-02-06T12:26:32.853Z,8.07
2023-02-06T12:29:06.989Z,8.80
2023-02-06T12:31:41.690Z,7.30
2023-02-06T12:34:15.042Z,7.63
2023-02-06T12:37:00.036Z,7.83
2023-02-06T12:39:33.245Z,6.80
2023-02-06T12:42:17.101Z,7.67
2023-02-06T12:44:52.518Z,7.30
2023-02-06T12:47:26.425Z,6.80
2023-02-06T12:49:58.733Z,7.10
2023-02-06T12:52:31.059Z,7.10
2023-02-06T12:55:08.989Z,7.37
2023-02-06T12:57:38.640Z,6.10
2023-02-06T13:00:45.945Z,5.97
2023-02-06T13:03:28.742Z,6.20
2023-02-06T13:06:03.549Z,6.33
2023-02-06T13:08:43.780Z,5.77
2023-02-06T13:11:23.638Z,6.23
2023-02-06T13:14:01.191Z,6.17
2023-02-06T13:16:44.549Z,6.20
2023-02-06T13:19:30.119Z,6.63
2023-02-06T13:22:33.141Z,6.03
2023-02-06T13:25:04.743Z,6.83
2023-02-06T13:27:40.797Z,6.73
2023-02-06T13:30:45.522Z,7.23
2023-02-06T13:33:17.021Z,6.20
2023-02-06T13:35:56.748Z,6.50
2023-02-06T13:38:36.939Z,5.70
2023-02-06T13:41:37.937Z,5.83
2023-02-06T13:44:18.580Z,5.40
2023-02-06T13:47:14.776Z,5.67
2023-02-06T13:50:20.945Z,5.70
2023-02-06T13:53:00.360Z,5.00
2023-02-06T13:55:44.337Z,4.83
2023-02-06T13:58:38.993Z,5.60
2023-02-06T14:01:14.212Z,4.60
2023-02-06T14:03:47.264Z,5.10
2023-02-06T14:06:41.082Z,5.33
2023-02-06T14:09:30.329Z,5.67
2023-02-06T14:12:23.715Z,5.33
2023-02-06T14:15:15.229Z,5.30
2023-02-06T14:18:00.150Z,4.93
2023-02-06T14:20:38.499Z,5.40
2023-02-06T14:23:19.975Z,5.33
2023-02-06T14:26:10.429Z,5.27
2023-02-06T14:28:52.038Z,5.00
2023-02-06T14:31:41.452Z,5.00
2023-02-06T14:34:24.354Z,5.00
2023-02-06T14:37:25.956Z,5.00
2023-02-06T14:39:55.360Z,5.13
2023-02-06T14:42:27.359Z,5.50
2023-02-06T14:44:59.804Z,5.93
2023-02-06T14:47:29.995Z,6.87
2023-02-06T14:50:01.218Z,6.37
2023-02-06T14:52:33.097Z,6.27
2023-02-06T14:55:01.320Z,6.17
2023-02-06T14:57:31.461Z,6.80
2023-02-06T15:00:01.998Z,5.60
2023-02-06T15:02:32.208Z,6.60
2023-02-06T15:05:02.970Z,6.40
2023-02-06T15:07:32.908Z,6.30
2023-02-06T15:10:08.126Z,7.00
2023-02-06T15:12:36.540Z,6.10
2023-02-06T15:15:20.330Z,5.97
2023-02-06T15:18:02.453Z,5.93
2023-02-06T15:20:38.421Z,6.73
2023-02-06T15:23:17.613Z,7.10
2023-02-06T15:26:01.557Z,5.20
2023-02-06T15:28:32.595Z,5.30
2023-02-06T15:31:02.069Z,5.83
2023-02-06T15:33:33.086Z,5.60
2023-02-06T15:36:04.728Z,5.50
2023-02-06T15:38:37.245Z,6.20
2023-02-06T15:41:08.264Z,5.77
2023-02-06T15:43:37.223Z,6.07
2023-02-06T15:46:06.633Z,5.23
2023-02-06T15:48:37.970Z,6.30
2023-02-06T15:51:20.105Z,6.23
2023-02-06T15:53:50.399Z,5.83
2023-02-06T15:56:24.253Z,6.70
2023-02-06T15:58:58.792Z,5.40
2023-02-06T16:01:31.188Z,5.97
2023-02-06T16:04:03.390Z,6.33
2023-02-06T16:06:32.908Z,6.30
2023-02-06T16:09:06.256Z,6.13
2023-02-06T16:11:50.874Z,6.77
2023-02-06T16:14:23.567Z,7.50
2023-02-06T16:17:03.940Z,6.50
2023-02-06T16:19:50.148Z,6.87
2023-02-06T16:22:27.260Z,6.70
2023-02-06T16:24:57.121Z,6.80
2023-02-06T16:27:27.343Z,7.13
2023-02-06T16:29:57.338Z,8.60
2023-02-06T16:32:29.009Z,7.67
2023-02-06T16:34:57.197Z,7.70
2023-02-06T16:37:28.957Z,7.50
2023-02-06T16:39:57.423Z,7.57
2023-02-06T16:42:27.415Z,8.20
2023-02-06T16:45:00.215Z,8.17
2023-02-06T16:47:28.520Z,8.47
2023-02-06T16:49:56.424Z,8.23
2023-02-06T16:52:28.933Z,8.30
2023-02-06T16:54:58.845Z,7.90
2023-02-06T16:57:31.018Z,8.00
2023-02-06T17:00:01.904Z,8.90
2023-02-06T17:02:30.046Z,8.07
2023-02-06T17:04:58.148Z,8.10
2023-02-06T17:07:31.721Z,9.60
2023-02-06T17:10:00.248Z,8.33
2023-02-06T17:12:28.283Z,8.93
2023-02-06T17:14:56.171Z,8.50
2023-02-06T17:17:24.471Z,8.40
2023-02-06T17:19:53.331Z,8.23
2023-02-06T17:22:24.449Z,7.40
2023-02-06T17:24:58.345Z,7.87
2023-02-06T17:27:26.276Z,8.17
2023-02-06T17:29:54.722Z,7.67
2023-02-06T17:32:22.904Z,8.30
2023-02-06T17:34:53.983Z,8.80
2023-02-06T17:37:22.030Z,8.60
2023-02-06T17:39:54.078Z,8.60
2023-02-06T17:42:24.242Z,8.87
2023-02-06T17:44:52.332Z,9.00
2023-02-06T17:47:20.306Z,8.30
2023-02-06T17:49:48.249Z,8.67
2023-02-06T17:52:16.333Z,8.67
2023-02-06T17:54:50.535Z,8.27
2023-02-06T17:57:18.505Z,9.57
2023-02-06T17:59:49.123Z,9.97
2023-02-06T18:02:17.114Z,9.47
2023-02-06T18:04:48.602Z,9.33
2023-02-06T18:07:16.558Z,10.00
2023-02-06T18:09:44.579Z,14.00
2023-02-06T18:12:15.272Z,15.00
2023-02-06T18:14:43.225Z,17.50
2023-02-06T18:17:12.616Z,16.53
2023-02-06T18:19:43.936Z,16.37
2023-02-06T18:22:15.377Z,15.93
2023-02-06T18:24:43.716Z,16.40
2023-02-06T18:27:12.434Z,16.27
2023-02-06T18:29:49.369Z,14.60
2023-02-06T18:32:20.416Z,13.90
2023-02-06T18:34:50.485Z,13.33
2023-02-06T18:37:18.395Z,12.80
2023-02-06T18:39:46.354Z,13.53
2023-02-06T18:42:31.623Z,12.87
2023-02-06T18:44:59.506Z,12.23
2023-02-06T18:47:28.762Z,11.97
2023-02-06T18:49:56.688Z,10.87
2023-02-06T18:52:24.659Z,11.97
2023-02-06T18:54:52.565Z,11.60
2023-02-06T18:57:21.676Z,11.60
2023-02-06T18:59:49.741Z,10.00
2023-02-06T19:02:19.617Z,10.07
2023-02-06T19:04:48.914Z,10.10
2023-02-06T19:07:17.218Z,11.67
2023-02-06T19:09:45.191Z,10.33
2023-02-06T19:12:16.068Z,10.27
2023-02-06T19:14:43.931Z,10.60
2023-02-06T19:17:13.480Z,10.50
2023-02-06T19:19:41.388Z,11.30
2023-02-06T19:22:11.755Z,11.20
2023-02-06T19:24:42.388Z,10.13
2023-02-06T19:27:10.871Z,10.30
2023-02-06T19:29:39.482Z,12.30
2023-02-06T19:32:09.567Z,12.17
2023-02-06T19:34:39.659Z,12.33
2023-02-06T19:37:09.255Z,12.30
2023-02-06T19:39:40.262Z,13.13
2023-02-06T19:42:10.381Z,14.70
2023-02-06T19:44:38.635Z,15.30
2023-02-06T19:47:06.615Z,16.60
2023-02-06T19:49:37.033Z,17.27
2023-02-06T19:52:08.456Z,19.07
2023-02-06T19:54:41.585Z,19.03
2023-02-06T19:57:09.833Z,21.97
2023-02-06T19:59:38.231Z,19.90
2023-02-06T20:02:06.268Z,19.37
2023-02-06T20:04:36.553Z,19.40
2023-02-06T20:07:04.853Z,17.30
2023-02-06T20:09:32.950Z,16.37
2023-02-06T20:12:02.302Z,16.63
2023-02-06T20:14:31.682Z,15.77
2023-02-06T20:17:04.628Z,15.10
2023-02-06T20:19:36.624Z,15.27
2023-02-06T20:22:11.726Z,13.70
2023-02-06T20:27:28.886Z,11.50
2023-02-06T20:29:59.208Z,13.30
2023-02-06T20:32:27.424Z,13.50
2023-02-06T20:34:58.450Z,14.10
2023-02-06T20:37:28.668Z,13.83
2023-02-06T20:39:56.908Z,12.40
2023-02-06T20:42:32.038Z,12.60
2023-02-06T20:45:00.875Z,12.87
2023-02-06T20:47:35.014Z,13.37
2023-02-06T20:50:02.951Z,14.43
2023-02-06T20:52:31.025Z,13.60
2023-02-06T20:55:04.425Z,14.70
2023-02-06T20:57:35.419Z,14.97
2023-02-06T21:00:07.307Z,15.53
2023-02-06T21:02:40.162Z,15.77
2023-02-06T21:05:10.277Z,15.43
2023-02-06T21:07:45.829Z,16.27
2023-02-06T21:10:20.616Z,16.50
2023-02-06T21:12:50.880Z,15.57
2023-02-06T21:15:22.866Z,16.17
2023-02-06T21:17:57.113Z,14.60
2023-02-06T21:20:25.092Z,15.83
2023-02-06T21:22:55.093Z,14.93
2023-02-06T21:25:28.827Z,15.17
2023-02-06T21:28:01.069Z,17.27
2023-02-06T21:30:32.451Z,14.80
2023-02-06T21:33:04.518Z,15.53
2023-02-06T21:35:42.117Z,15.20
2023-02-06T21:38:21.478Z,16.47
2023-02-06T21:40:51.746Z,15.33
2023-02-06T21:43:27.094Z,15.83
2023-02-06T21:45:58.560Z,14.67
2023-02-06T21:48:33.980Z,13.90
2023-02-06T21:51:11.075Z,14.67
2023-02-06T21:53:42.730Z,13.67
2023-02-06T21:56:15.090Z,13.17
2023-02-06T21:58:50.507Z,14.10
2023-02-06T22:01:22.009Z,15.17
2023-02-06T22:03:54.801Z,13.90
2023-02-06T22:06:25.867Z,13.77
2023-02-06T22:08:55.891Z,15.83
2023-02-06T22:11:29.121Z,13.90
2023-02-06T22:14:07.464Z,14.97
2023-02-06T22:16:35.789Z,13.93
2023-02-06T22:19:08.835Z,13.90
2023-02-06T22:21:45.852Z,12.53
2023-02-06T22:24:14.249Z,14.23
2023-02-06T22:26:47.255Z,13.80
2023-02-06T22:29:19.044Z,13.87
2023-02-06T22:31:49.395Z,14.47
2023-02-06T22:34:25.758Z,13.70
2023-02-06T22:37:02.526Z,13.47
2023-02-06T22:39:36.009Z,13.57
2023-02-06T22:42:09.569Z,13.80
2023-02-06T22:44:54.191Z,14.10
2023-02-06T22:50:11.640Z,14.27
2023-02-06T22:52:57.045Z,12.50
2023-02-06T22:55:45.322Z,12.30
2023-02-06T22:58:15.255Z,13.20
2023-02-06T23:00:48.357Z,12.47
2023-02-06T23:03:17.565Z,11.83
2023-02-06T23:05:49.201Z,12.93
2023-02-06T23:08:21.663Z,13.10
2023-02-06T23:10:51.483Z,12.67
2023-02-06T23:13:28.295Z,13.43
2023-02-06T23:16:01.288Z,12.30
2023-02-06T23:18:37.676Z,12.67
2023-02-06T23:21:10.235Z,12.23
2023-02-06T23:23:38.595Z,11.47
2023-02-06T23:26:18.691Z,13.13
2023-02-06T23:28:48.863Z,13.33
2023-02-06T23:31:20.091Z,12.33
2023-02-06T23:33:49.592Z,12.43
2023-02-06T23:36:21.579Z,12.50
2023-02-06T23:38:50.670Z,12.50
2023-02-06T23:41:20.795Z,12.40
2023-02-06T23:43:56.093Z,11.87
2023-02-06T23:46:30.993Z,12.37
2023-02-06T23:49:03.968Z,12.70
2023-02-06T23:51:36.358Z,11.90
2023-02-06T23:54:11.503Z,12.60
2023-02-06T23:56:44.078Z,12.60
2023-02-06T23:59:13.921Z,13.30
